Time;durP1;ratioP1;P1;durP2;ratioP2;P2;SDS_P1;SDS_P2;PMS_P1;PMS_P2;Temp;Humidity;BMP_temperature;BMP_pressure;BME280_temperature;BME280_humidity;BME280_pressure;Samples;Min_cycle;Max_cycle;Signal;HPM_P1;HPM_P2
2022/12/24 00:00:00;;;;;;;87.60;43.00;;;;;;;2.25;91.43;98930.49;106211;1308;137885;-60
2022/12/24 00:02:27;;;;;;;84.60;41.50;;;;;;;2.25;91.44;98930.63;106434;1300;23304;-60
2022/12/24 00:04:53;;;;;;;;;;;;;;;2.26;91.47;98928.97;106316;1302;137266;-59
2022/12/24 00:07:26;;;;;;;80.20;41.70;;;;;;;2.26;91.52;98928.39;106400;1306;22152;-59
2022/12/24 00:09:53;;;;;;;79.70;42.70;;;;;;;2.25;91.46;98921.11;106432;1299;22392;-64
2022/12/24 00:12:20;;;;;;;84.40;43.50;;;;;;;2.27;91.40;98920.40;106306;1308;138024;-59
2022/12/24 00:14:47;;;;;;;80.20;41.30;;;;;;;2.27;91.57;98918.41;106380;1308;22919;-60
2022/12/24 00:17:14;;;;;;;79.30;39.40;;;;;;;2.27;91.34;98919.45;106275;1308;139670;-60
2022/12/24 00:19:42;;;;;;;76.70;39.90;;;;;;;2.29;91.41;98921.02;106463;1308;22099;-60
2022/12/24 00:22:08;;;;;;;74.30;39.10;;;;;;;2.31;91.25;98924.24;106434;1300;22139;-60
2022/12/24 00:24:35;;;;;;;69.30;36.50;;;;;;;2.33;91.21;98926.40;106325;1308;138498;-60
2022/12/24 00:27:02;;;;;;;65.60;36.50;;;;;;;2.36;91.45;98922.79;106445;1306;22141;-60
2022/12/24 00:29:29;;;;;;;68.30;39.20;;;;;;;2.39;91.36;98919.92;106312;1308;139666;-60
2022/12/24 00:31:56;;;;;;;64.80;36.40;;;;;;;2.40;91.36;98921.04;106415;1308;22144;-60
2022/12/24 00:34:23;;;;;;;66.00;37.50;;;;;;;2.40;91.07;98918.47;106413;1307;22210;-60
2022/12/24 00:36:50;;;;;;;77.40;43.10;;;;;;;2.39;91.13;98915.16;106306;1308;137193;-59
2022/12/24 00:39:17;;;;;;;73.90;38.90;;;;;;;2.40;90.95;98910.44;106452;1307;22153;-60
2022/12/24 00:41:43;;;;;;;;;;;;;;;2.38;90.96;98907.85;106337;1307;138715;-60
2022/12/24 00:44:10;;;;;;;55.70;33.80;;;;;;;2.36;90.89;98908.94;106419;1294;22168;-60
2022/12/24 00:46:38;;;;;;;59.00;32.80;;;;;;;2.36;91.19;98906.66;106311;1308;139700;-60
2022/12/24 00:49:05;;;;;;;60.60;32.90;;;;;;;2.38;91.15;98903.55;106346;1308;22299;-60
2022/12/24 00:51:33;;;;;;;;;;;;;;;2.39;91.11;98908.49;106382;1308;22452;-60
2022/12/24 00:53:59;;;;;;;57.70;31.60;;;;;;;2.40;91.21;98908.58;106325;1299;124547;-60
2022/12/24 00:56:26;;;;;;;62.40;31.90;;;;;;;2.43;91.46;98905.70;106436;1308;22134;-60
2022/12/24 00:58:53;;;;;;;58.40;32.10;;;;;;;2.45;91.43;98902.83;106300;1307;138264;-60
2022/12/24 01:01:20;;;;;;;;;;;;;;;2.49;91.52;98902.11;106444;1308;22475;-59
2022/12/24 01:03:47;;;;;;;56.50;31.90;;;;;;;2.52;91.57;98896.68;106400;1307;22190;-60
2022/12/24 01:06:23;;;;;;;59.20;33.90;;;;;;;2.52;91.46;98897.05;106318;1308;137561;-60
2022/12/24 01:08:50;;;;;;;59.30;34.10;;;;;;;2.51;91.39;98899.12;106432;1293;22196;-60
2022/12/24 01:11:16;;;;;;;;;;;;;;;2.51;91.37;98900.24;106322;1300;138290;-60
2022/12/24 01:13:43;;;;;;;56.60;30.70;;;;;;;2.52;91.43;98903.55;106463;1308;22117;-60
2022/12/24 01:16:17;;;;;;;57.00;33.80;;;;;;;2.51;91.35;98901.69;106373;1300;23255;-60
2022/12/24 01:18:44;;;;;;;60.60;33.50;;;;;;;2.51;91.40;98905.24;106339;1308;138746;-60
2022/12/24 01:21:11;;;;;;;;;;;;;;;2.51;91.35;98906.86;106407;1293;22402;-60
2022/12/24 01:23:38;;;;;;;53.60;30.80;;;;;;;2.51;91.36;98916.66;106310;1306;124581;-60
2022/12/24 01:26:05;;;;;;;55.30;33.90;;;;;;;2.52;91.23;98913.73;106387;1308;22232;-60
2022/12/24 01:28:32;;;;;;;55.70;32.80;;;;;;;2.53;91.31;98916.65;106249;1308;138159;-60
2022/12/24 01:30:58;;;;;;;62.50;33.30;;;;;;;2.52;91.28;98915.21;106436;1307;22210;-60
2022/12/24 01:33:28;;;;;;;;;;;;;;;2.50;91.17;98912.37;106453;1307;22359;-60
2022/12/24 01:35:55;;;;;;;50.80;29.90;;;;;;;2.49;91.28;98910.42;106303;1307;123871;-60
2022/12/24 01:38:22;;;;;;;53.40;32.40;;;;;;;2.52;91.38;98907.60;106400;1307;22116;-60
2022/12/24 01:43:34;;;;;;;65.70;37.00;;;;;;;2.55;91.15;98908.02;106424;1308;22192;-60
2022/12/24 01:46:11;;;;;;;65.40;35.70;;;;;;;2.55;91.15;98903.61;106392;1308;23408;-60
2022/12/24 01:48:40;;;;;;;63.60;35.30;;;;;;;2.54;90.92;98898.15;106297;1307;137555;-60
2022/12/24 01:51:26;;;;;;;66.10;37.30;;;;;;;2.53;90.93;98894.02;106356;1308;23019;-60
2022/12/24 01:54:00;;;;;;;62.00;34.90;;;;;;;2.50;91.04;98894.58;106237;1307;138437;-60
2022/12/24 01:56:27;;;;;;;57.30;34.30;;;;;;;2.49;90.82;98893.73;106294;1303;22160;-60
2022/12/24 01:58:56;;;;;;;62.40;34.60;;;;;;;2.51;90.94;98897.39;106287;1304;138407;-60
2022/12/24 02:01:23;;;;;;;60.20;34.70;;;;;;;2.51;90.87;98888.00;106415;1306;22269;-60
2022/12/24 02:03:49;;;;;;;54.10;32.70;;;;;;;2.49;91.00;98881.86;106439;1308;22237;-60
2022/12/24 02:06:16;;;;;;;56.20;32.60;;;;;;;2.48;90.94;98881.39;106308;1292;138969;-60
2022/12/24 02:08:43;;;;;;;57.70;33.50;;;;;;;2.47;91.16;98883.73;106359;1302;22967;-60
2022/12/24 02:11:14;;;;;;;60.50;32.50;;;;;;;2.47;91.13;98883.67;106336;1289;138183;-60
2022/12/24 02:13:43;;;;;;;54.90;33.10;;;;;;;2.49;91.37;98879.45;106425;1299;22365;-59
2022/12/24 02:16:38;;;;;;;54.60;32.70;;;;;;;2.53;91.34;98881.12;106385;1308;22195;-60
2022/12/24 02:19:20;;;;;;;56.70;33.30;;;;;;;2.55;91.39;98878.78;106368;1308;22258;-60
2022/12/24 02:21:53;;;;;;;58.80;33.10;;;;;;;2.56;91.30;98878.86;106415;1304;22533;-60
2022/12/24 02:24:57;;;;;;;60.00;35.20;;;;;;;2.59;91.43;98878.46;106306;1308;137599;-60
2022/12/24 02:27:47;;;;;;;55.10;32.20;;;;;;;2.59;91.36;98882.02;106414;1308;23318;-60
2022/12/24 02:30:19;;;;;;;49.80;30.50;;;;;;;2.59;91.38;98883.80;106257;1307;137846;-60
2022/12/24 02:32:52;;;;;;;55.10;31.20;;;;;;;2.61;91.51;98880.98;106419;1308;23261;-60
2022/12/24 02:35:24;;;;;;;54.60;32.40;;;;;;;2.63;91.30;98880.19;106222;1308;138427;-60
2022/12/24 02:37:59;;;;;;;50.10;31.50;;;;;;;2.65;91.27;98883.05;106418;1308;22186;-60
2022/12/24 02:40:45;;;;;;;56.70;31.40;;;;;;;2.68;91.38;98882.33;106250;1301;22296;-60
2022/12/24 02:43:14;;;;;;;61.30;33.60;;;;;;;2.70;91.24;98883.67;106393;1299;22203;-60
2022/12/24 02:45:41;;;;;;;49.00;30.70;;;;;;;2.72;91.23;98878.20;106328;1302;22131;-60
2022/12/24 02:48:08;;;;;;;57.10;33.20;;;;;;;2.72;91.03;98879.16;106191;1307;139256;-60
2022/12/24 02:50:35;;;;;;;56.50;33.90;;;;;;;2.72;91.07;98874.89;106187;1308;23179;-60
2022/12/24 02:53:01;;;;;;;57.00;33.60;;;;;;;2.72;91.08;98868.48;106298;1307;138090;-60
2022/12/24 02:55:38;;;;;;;58.90;32.70;;;;;;;2.71;91.05;98872.66;106459;1306;22039;-60
2022/12/24 02:58:23;;;;;;;59.50;36.00;;;;;;;2.73;91.01;98875.02;106298;1308;22228;-60
2022/12/24 03:00:57;;;;;;;58.60;33.50;;;;;;;2.72;90.86;98877.70;106235;1308;137862;-60
2022/12/24 03:03:44;;;;;;;59.50;34.20;;;;;;;2.73;90.87;98877.45;106414;1307;22121;-59
2022/12/24 03:06:16;;;;;;;57.00;33.10;;;;;;;2.73;90.89;98873.63;106099;1301;140072;-60
2022/12/24 03:09:04;;;;;;;56.00;34.00;;;;;;;2.72;90.86;98877.70;106423;1306;22185;-60
2022/12/24 03:11:31;;;;;;;58.50;32.80;;;;;;;2.72;91.05;98872.77;106301;1299;138338;-60
2022/12/24 03:13:58;;;;;;;;;;;;;;;2.73;90.74;98867.56;106321;1308;22342;-60
2022/12/24 03:16:25;;;;;;;49.60;29.30;;;;;;;2.72;90.95;98866.11;106367;1308;22274;-60
2022/12/24 03:18:52;;;;;;;50.00;29.60;;;;;;;2.70;90.98;98870.07;106295;1308;138206;-60
2022/12/24 03:21:33;;;;;;;53.70;32.60;;;;;;;2.70;91.06;98868.95;106413;1306;22205;-60
2022/12/24 03:24:00;;;;;;;59.70;32.80;;;;;;;2.72;90.98;98872.95;106263;1302;138161;-59
2022/12/24 03:26:27;;;;;;;;;;;;;;;2.74;91.19;98872.90;106412;1307;22369;-60
2022/12/24 03:28:54;;;;;;;52.40;30.30;;;;;;;2.76;91.14;98873.26;106301;1288;124277;-60
2022/12/24 03:31:21;;;;;;;;;;;;;;;2.77;90.89;98873.03;106461;1298;22426;-60
2022/12/24 03:33:48;;;;;;;51.30;29.80;;;;;;;2.76;90.98;98870.64;106462;1306;22186;-60
2022/12/24 03:36:14;;;;;;;51.30;30.30;;;;;;;2.78;90.87;98871.29;106337;1307;138502;-59
2022/12/24 03:38:41;;;;;;;;;;;;;;;2.78;90.89;98866.66;106388;1301;23167;-60
2022/12/24 03:41:08;;;;;;;51.40;27.50;;;;;;;2.78;90.71;98863.17;106299;1300;126427;-60
2022/12/24 03:43:34;;;;;;;;;;;;;;;2.78;90.60;98864.88;106467;1299;22538;-60
2022/12/24 03:46:06;;;;;;;51.50;28.50;;;;;;;2.77;90.49;98860.33;106385;1292;23366;-60
2022/12/24 03:48:34;;;;;;;52.00;30.90;;;;;;;2.76;90.70;98856.17;106295;1307;137957;-60
2022/12/24 03:51:01;;;;;;;49.60;29.40;;;;;;;2.77;90.58;98860.70;106408;1308;22237;-60
2022/12/24 03:53:28;;;;;;;52.20;30.60;;;;;;;2.77;90.39;98858.76;106239;1308;139238;-60
2022/12/24 03:55:54;;;;;;;56.70;32.10;;;;;;;2.76;90.31;98858.73;106452;1306;22126;-60
2022/12/24 03:58:21;;;;;;;57.50;32.40;;;;;;;2.74;90.47;98863.05;106419;1307;22191;-59
2022/12/24 04:00:48;;;;;;;61.10;33.90;;;;;;;2.74;90.38;98862.79;106343;1295;139159;-59
2022/12/24 04:03:15;;;;;;;57.50;32.90;;;;;;;2.74;90.69;98874.40;106435;1307;22120;-60
2022/12/24 04:05:41;;;;;;;;;;;;;;;2.73;90.45;98873.85;106334;1293;137378;-59
2022/12/24 04:08:08;;;;;;;54.20;31.00;;;;;;;2.73;90.34;98874.02;106397;1308;22913;-59
2022/12/24 04:10:35;;;;;;;60.00;30.70;;;;;;;2.73;90.40;98877.49;106452;1299;22112;-60
2022/12/24 04:13:01;;;;;;;54.20;31.20;;;;;;;2.73;90.42;98873.68;106343;1301;138073;-60
2022/12/24 04:15:28;;;;;;;50.40;30.30;;;;;;;2.73;90.29;98871.32;106430;1307;22117;-60
2022/12/24 04:17:55;;;;;;;49.80;30.30;;;;;;;2.73;90.45;98869.54;106323;1306;140117;-60
2022/12/24 04:20:22;;;;;;;52.40;31.70;;;;;;;2.73;90.37;98869.00;106388;1308;23366;-60
2022/12/24 04:22:48;;;;;;;55.90;32.10;;;;;;;2.73;90.33;98866.36;106327;1308;139070;-60
2022/12/24 04:25:15;;;;;;;55.80;32.80;;;;;;;2.71;90.51;98867.86;106461;1300;22155;-59
2022/12/24 04:27:42;;;;;;;;;;;;;;;2.71;90.32;98862.90;106450;1301;22348;-59
2022/12/24 04:30:09;;;;;;;51.00;29.10;;;;;;;2.68;90.36;98859.29;106271;1299;125941;-59
2022/12/24 04:32:36;;;;;;;53.50;31.50;;;;;;;2.70;90.41;98863.33;106433;1306;22190;-60
2022/12/24 04:35:03;;;;;;;57.10;34.10;;;;;;;2.71;90.35;98862.27;106312;1306;138587;-60
2022/12/24 04:37:30;;;;;;;;;;;;;;;2.71;90.41;98861.36;106481;1296;22359;-60
2022/12/24 04:39:57;;;;;;;52.10;30.80;;;;;;;2.72;90.20;98854.83;106417;1306;22173;-60
2022/12/24 04:42:24;;;;;;;54.90;32.50;;;;;;;2.72;90.45;98857.92;106333;1307;138147;-60
2022/12/24 04:44:51;;;;;;;57.90;34.60;;;;;;;2.70;90.14;98857.48;106399;1308;22250;-60
2022/12/24 04:47:17;;;;;;;55.60;34.80;;;;;;;2.69;90.39;98859.14;106328;1306;137940;-60
2022/12/24 04:49:44;;;;;;;;;;;;;;;2.65;90.10;98853.94;106436;1307;22358;-60
2022/12/24 04:52:11;;;;;;;51.20;29.30;;;;;;;2.65;90.36;98854.64;106422;1307;22220;-60
2022/12/24 04:54:37;;;;;;;51.20;31.30;;;;;;;2.64;90.27;98854.19;106349;1306;139486;-60
2022/12/24 04:57:04;;;;;;;54.20;32.80;;;;;;;2.64;90.41;98852.73;106392;1299;22152;-60
2022/12/24 04:59:31;;;;;;;53.80;32.70;;;;;;;2.64;90.19;98856.34;106289;1308;138156;-60
2022/12/24 05:01:58;;;;;;;56.40;32.60;;;;;;;2.65;90.36;98860.71;106428;1308;22099;-60
2022/12/24 05:04:25;;;;;;;71.70;36.30;;;;;;;2.66;90.40;98857.15;106311;1302;22143;-60
2022/12/24 05:06:51;;;;;;;55.20;33.20;;;;;;;2.68;90.28;98850.92;106342;1300;137861;-60
2022/12/24 05:09:18;;;;;;;56.60;33.20;;;;;;;2.69;90.48;98848.92;106446;1297;22170;-60
2022/12/24 05:11:45;;;;;;;62.10;35.30;;;;;;;2.70;90.34;98847.18;106346;1308;138220;-60
2022/12/24 05:14:11;;;;;;;60.80;34.90;;;;;;;2.70;90.30;98846.52;106437;1308;22137;-60
2022/12/24 05:16:38;;;;;;;64.60;35.00;;;;;;;2.69;90.35;98848.77;106351;1307;137779;-59
2022/12/24 05:19:05;;;;;;;65.80;36.00;;;;;;;2.68;90.17;98848.89;106436;1306;22114;-60
2022/12/24 05:21:32;;;;;;;62.60;34.00;;;;;;;2.68;90.23;98850.10;106440;1294;22128;-60
2022/12/24 05:26:48;;;;;;;50.90;30.90;;;;;;;2.65;90.49;98855.58;106388;1306;22319;-60
2022/12/24 05:29:15;;;;;;;52.30;31.30;;;;;;;2.68;90.40;98856.59;106274;1308;138875;-60
2022/12/24 05:31:42;;;;;;;51.30;30.90;;;;;;;2.70;90.44;98859.48;106469;1306;22208;-60
2022/12/24 05:34:09;;;;;;;53.70;32.00;;;;;;;2.71;90.45;98857.02;106413;1306;22136;-60
2022/12/24 05:36:36;;;;;;;49.90;30.40;;;;;;;2.74;90.67;98866.38;106353;1300;139056;-60
2022/12/24 05:39:03;;;;;;;;;;;;;;;2.75;90.66;98866.89;106362;1308;22415;-60
2022/12/24 05:41:39;;;;;;;57.50;31.50;;;;;;;2.79;90.59;98865.61;106250;1308;124112;-60
2022/12/24 05:44:05;;;;;;;51.30;30.30;;;;;;;2.80;90.51;98865.43;106417;1306;23395;-60
2022/12/24 05:46:32;;;;;;;61.60;32.20;;;;;;;2.81;90.55;98870.10;106481;1303;22914;-59
2022/12/24 05:48:59;;;;;;;;;;;;;;;2.82;90.49;98874.36;106307;1306;137247;-59
2022/12/24 05:51:26;;;;;;;51.70;31.70;;;;;;;2.82;90.44;98874.61;106412;1300;22290;-59
2022/12/24 05:53:52;;;;;;;54.00;30.90;;;;;;;2.81;90.42;98876.89;106268;1290;138105;-59
2022/12/24 05:56:21;;;;;;;51.20;29.50;;;;;;;2.82;90.27;98878.73;106430;1307;22101;-59
2022/12/24 05:58:47;;;;;;;51.20;31.10;;;;;;;2.82;90.33;98879.20;106289;1292;139123;-59
2022/12/24 06:01:14;;;;;;;;;;;;;;;2.82;90.23;98880.36;106444;1295;22412;-59
2022/12/24 06:03:41;;;;;;;48.70;28.80;;;;;;;2.81;90.00;98882.85;106419;1307;22422;-59
2022/12/24 06:06:09;;;;;;;;;;;;;;;2.78;89.91;98885.70;106315;1301;139279;-59
2022/12/24 06:08:36;;;;;;;44.10;27.40;;;;;;;2.76;90.04;98885.13;106425;1300;22175;-59
2022/12/24 06:11:05;;;;;;;52.00;29.80;;;;;;;2.75;90.29;98887.05;106315;1306;138876;-59
2022/12/24 06:13:32;;;;;;;55.50;29.60;;;;;;;2.75;90.24;98890.61;106389;1292;22112;-59
2022/12/24 06:15:59;;;;;;;;;;;;;;;2.75;90.12;98892.00;106382;1300;22387;-59
2022/12/24 06:18:28;;;;;;;49.80;28.70;;;;;;;2.75;90.20;98893.91;106330;1306;125339;-59
2022/12/24 06:20:55;;;;;;;56.30;32.00;;;;;;;2.76;90.29;98890.96;106440;1306;22926;-59
2022/12/24 06:23:22;;;;;;;60.70;34.80;;;;;;;2.77;90.16;98892.40;106292;1307;139830;-59
2022/12/24 06:25:49;;;;;;;57.60;33.30;;;;;;;2.79;90.35;98888.45;106444;1307;22179;-59
2022/12/24 06:28:16;;;;;;;;;;;;;;;2.78;90.22;98889.58;106435;1306;22398;-59
2022/12/24 06:30:47;;;;;;;58.60;32.20;;;;;;;2.77;90.10;98888.52;106313;1308;124083;-59
2022/12/24 06:33:14;;;;;;;60.30;33.20;;;;;;;2.75;90.14;98889.86;106409;1300;22113;-59
2022/12/24 06:35:41;;;;;;;65.80;36.00;;;;;;;2.74;90.10;98889.73;106351;1306;139470;-59
2022/12/24 06:38:07;;;;;;;57.20;31.50;;;;;;;2.74;90.10;98889.57;106413;1307;22265;-59
2022/12/24 06:40:36;;;;;;;58.80;32.00;;;;;;;2.73;90.25;98890.10;106447;1306;22137;-59
2022/12/24 06:43:03;;;;;;;58.90;31.20;;;;;;;2.74;90.04;98889.13;106319;1292;22151;-59
2022/12/24 06:45:30;;;;;;;54.00;30.70;;;;;;;2.75;90.20;98891.80;106385;1308;22125;-59
2022/12/24 06:47:58;;;;;;;51.90;28.70;;;;;;;2.79;90.29;98894.71;106264;1308;138461;-59
2022/12/24 06:50:24;;;;;;;56.00;32.40;;;;;;;2.82;90.59;98898.41;106470;1285;22147;-59
2022/12/24 06:52:51;;;;;;;54.10;33.20;;;;;;;2.86;90.39;98895.64;106302;1291;138533;-59
2022/12/24 06:55:18;;;;;;;59.70;34.40;;;;;;;2.89;90.58;98899.11;106437;1306;22245;-59
2022/12/24 06:57:45;;;;;;;70.60;38.30;;;;;;;2.92;90.57;98906.19;106400;1292;22223;-59
2022/12/24 07:00:12;;;;;;;72.90;39.10;;;;;;;2.94;90.31;98905.23;106254;1293;138048;-59
2022/12/24 07:02:42;;;;;;;63.20;35.70;;;;;;;2.95;90.26;98904.34;106429;1289;22178;-59
2022/12/24 07:05:10;;;;;;;69.60;34.00;;;;;;;2.97;90.25;98901.92;106319;1307;139876;-59
2022/12/24 07:07:38;;;;;;;60.90;33.50;;;;;;;2.99;90.09;98903.98;106248;1303;22141;-59
2022/12/24 07:10:06;;;;;;;56.70;32.70;;;;;;;3.00;90.13;98908.23;106446;1298;22137;-59
2022/12/24 07:12:33;;;;;;;48.30;30.40;;;;;;;3.02;90.30;98909.95;106184;1295;138318;-59
2022/12/24 07:14:59;;;;;;;55.40;32.40;;;;;;;3.04;90.16;98910.31;106424;1307;22335;-59
2022/12/24 07:17:26;;;;;;;55.10;32.10;;;;;;;3.05;90.01;98906.42;106318;1285;138331;-59
2022/12/24 07:19:53;;;;;;;60.90;33.20;;;;;;;3.08;90.07;98904.52;106398;1306;22334;-59
2022/12/24 07:22:20;;;;;;;53.90;32.30;;;;;;;3.10;90.15;98907.81;106378;1301;22187;-59
2022/12/24 07:24:47;;;;;;;;;;;;;;;3.12;90.20;98901.30;106285;1293;139165;-59
2022/12/24 07:27:13;;;;;;;56.50;33.10;;;;;;;3.14;89.92;98910.02;106368;1301;22111;-59
2022/12/24 07:29:40;;;;;;;59.20;36.40;;;;;;;3.14;89.97;98904.80;106327;1306;137505;-60
2022/12/24 07:32:07;;;;;;;56.50;34.40;;;;;;;3.15;89.99;98907.81;106369;1293;22324;-60
2022/12/24 07:34:34;;;;;;;68.60;36.10;;;;;;;3.16;89.91;98908.80;106401;1307;22163;-60
2022/12/24 07:37:00;;;;;;;;;;;;;;;3.17;89.64;98904.14;106302;1307;138685;-60
2022/12/24 07:39:27;;;;;;;64.00;34.50;;;;;;;3.18;89.77;98907.77;106440;1296;22226;-60
2022/12/24 07:41:54;;;;;;;68.70;36.00;;;;;;;3.19;89.71;98906.66;106281;1292;139032;-60
2022/12/24 07:44:21;;;;;;;;;;;;;;;3.20;89.85;98911.75;106431;1307;23688;-60
2022/12/24 07:46:47;;;;;;;73.60;37.40;;;;;;;3.21;89.76;98908.75;106299;1291;124095;-60
2022/12/24 07:49:14;;;;;;;89.20;44.20;;;;;;;3.24;89.70;98910.22;106439;1293;22280;-60
2022/12/24 07:51:41;;;;;;;83.90;42.70;;;;;;;3.26;89.95;98909.24;106420;1292;22323;-59
2022/12/24 07:54:07;;;;;;;86.00;41.70;;;;;;;3.27;89.81;98910.89;106290;1292;139167;-56
2022/12/24 07:56:34;;;;;;;82.20;42.10;;;;;;;3.29;89.63;98908.48;106404;1307;22289;-59
2022/12/24 07:59:01;;;;;;;95.60;44.50;;;;;;;3.31;89.81;98907.17;106286;1292;137496;-56
2022/12/24 08:01:27;;;;;;;91.50;42.60;;;;;;;3.30;89.71;98900.30;106382;1300;22934;-56
2022/12/24 08:03:54;;;;;;;;;;;;;;;3.34;89.71;98902.71;106426;1293;23432;-56
2022/12/24 08:06:21;;;;;;;78.80;36.30;;;;;;;3.36;89.38;98904.30;106350;1306;124730;-56
2022/12/24 08:08:48;;;;;;;66.60;33.00;;;;;;;3.39;89.62;98902.00;106452;1307;22238;-57
2022/12/24 08:11:15;;;;;;;79.20;35.10;;;;;;;3.40;89.41;98900.95;106321;1307;138081;-55
2022/12/24 08:13:42;;;;;;;72.30;35.60;;;;;;;3.40;89.32;98899.13;106374;1308;22945;-55
2022/12/24 08:16:09;;;;;;;59.90;31.80;;;;;;;3.39;89.32;98900.77;106413;1293;22367;-55
2022/12/24 08:18:36;;;;;;;58.90;34.90;;;;;;;3.40;89.14;98903.31;106318;1290;138066;-55
2022/12/24 08:21:05;;;;;;;55.50;33.10;;;;;;;3.40;89.17;98902.06;106392;1292;22219;-56
2022/12/24 08:23:32;;;;;;;54.90;33.00;;;;;;;3.43;89.24;98896.95;106180;1301;139012;-56
2022/12/24 08:25:58;;;;;;;59.10;33.70;;;;;;;3.44;89.06;98889.02;106407;1308;22995;-57
2022/12/24 08:28:25;;;;;;;58.60;34.70;;;;;;;3.46;89.25;98884.00;106438;1300;22130;-55
2022/12/24 08:30:52;;;;;;;55.30;32.70;;;;;;;3.47;89.26;98881.65;106346;1308;137243;-56
2022/12/24 08:33:18;;;;;;;51.20;30.00;;;;;;;3.49;89.32;98873.73;106473;1300;22087;-55
2022/12/24 08:35:46;;;;;;;;;;;;;;;3.53;89.17;98877.08;106330;1305;139105;-55
2022/12/24 08:38:12;;;;;;;53.50;30.20;;;;;;;3.56;89.08;98877.48;106478;1296;22685;-55
2022/12/24 08:40:39;;;;;;;52.80;31.80;;;;;;;3.59;89.25;98876.75;106299;1308;138546;-56
2022/12/24 08:43:06;;;;;;;54.70;31.20;;;;;;;3.63;89.22;98880.20;106426;1307;22172;-56
2022/12/24 08:45:34;;;;;;;55.90;31.90;;;;;;;3.66;88.95;98883.14;106370;1308;22199;-56
2022/12/24 08:48:07;;;;;;;57.90;32.80;;;;;;;3.69;88.79;98881.95;106321;1308;139066;-56
2022/12/24 08:50:34;;;;;;;54.60;32.60;;;;;;;3.72;88.83;98879.21;106420;1304;22148;-56
2022/12/24 08:53:00;;;;;;;;;;;;;;;3.74;88.84;98882.34;106350;1292;137520;-55
2022/12/24 08:55:27;;;;;;;62.40;35.50;;;;;;;3.78;88.86;98878.07;106447;1308;22166;-55
2022/12/24 08:57:54;;;;;;;59.70;33.90;;;;;;;3.81;88.74;98876.59;106435;1300;22349;-56
2022/12/24 09:00:20;;;;;;;56.90;33.90;;;;;;;3.84;88.44;98882.80;106322;1308;137603;-55
2022/12/24 09:02:47;;;;;;;;;;;;;;;3.87;88.41;98876.85;106251;1286;338504;-53
2022/12/24 09:07:38;;;;;;;63.20;36.00;;;;;;;3.94;88.47;98881.88;99691;1335;545056;-54
2022/12/24 09:10:08;;;;;;;60.90;34.00;;;;;;;3.95;88.23;98883.30;101458;1296;22491;-55
2022/12/24 09:12:34;;;;;;;53.90;32.20;;;;;;;3.98;88.15;98882.23;105804;1313;137298;-56
2022/12/24 09:15:02;;;;;;;61.70;35.50;;;;;;;4.01;87.92;98881.56;105717;1310;22824;-56
2022/12/24 09:17:33;;;;;;;57.00;34.70;;;;;;;4.05;87.70;98881.10;105605;1315;139077;-56
2022/12/24 09:20:00;;;;;;;55.70;34.60;;;;;;;4.08;87.95;98879.48;105784;1315;22135;-56
2022/12/24 09:22:27;;;;;;;51.00;32.10;;;;;;;4.11;87.83;98884.24;105964;1303;172888;-56
2022/12/24 09:24:53;;;;;;;47.90;31.80;;;;;;;4.12;87.78;98886.44;105987;1312;138507;-56
2022/12/24 09:27:20;;;;;;;59.20;35.80;;;;;;;4.15;87.58;98887.75;106083;1312;22627;-56
2022/12/24 09:29:47;;;;;;;58.60;34.80;;;;;;;4.15;87.64;98878.64;106010;1312;136811;-56
2022/12/24 09:32:13;;;;;;;54.60;34.80;;;;;;;4.15;87.40;98886.93;106103;1312;22132;-56
2022/12/24 09:34:40;;;;;;;;;;;;;;;4.14;87.08;98887.08;106113;1312;22346;-56
2022/12/24 09:37:07;;;;;;;61.20;35.30;;;;;;;4.12;86.88;98885.19;106022;1303;123188;-56
2022/12/24 09:39:34;;;;;;;57.30;35.30;;;;;;;4.11;86.85;98887.11;106215;1304;22206;-63
2022/12/24 09:42:03;;;;;;;60.30;36.20;;;;;;;4.11;87.02;98886.90;106131;1312;138110;-63
2022/12/24 09:44:36;;;;;;;62.60;36.60;;;;;;;4.12;86.70;98883.30;106066;1312;24364;-63
2022/12/24 09:47:09;;;;;;;63.20;38.20;;;;;;;4.10;86.74;98882.81;105988;1312;138023;-63
2022/12/24 09:49:39;;;;;;;66.70;38.40;;;;;;;4.10;86.77;98887.66;105999;1313;23568;-63
2022/12/24 09:52:08;;;;;;;62.30;36.00;;;;;;;4.10;86.85;98883.93;105974;1312;22172;-63
2022/12/24 09:54:37;;;;;;;66.50;37.20;;;;;;;4.09;86.72;98882.24;105938;1312;138736;-62
2022/12/24 09:57:06;;;;;;;67.60;36.30;;;;;;;4.08;86.44;98881.30;106341;1309;22135;-62
2022/12/24 09:59:43;;;;;;;60.70;36.70;;;;;;;4.06;86.46;98877.20;106187;1301;138872;-63
2022/12/24 10:02:12;;;;;;;66.40;38.80;;;;;;;4.06;86.21;98884.48;106429;1308;22142;-63
2022/12/24 10:04:39;;;;;;;67.30;37.80;;;;;;;4.07;86.45;98885.27;106317;1309;22230;-63
2022/12/24 10:07:10;;;;;;;;;;;;;;;4.07;86.74;98889.85;106272;1309;137554;-62
2022/12/24 10:10:04;;;;;;;63.90;38.00;;;;;;;4.07;86.48;98901.81;106364;1309;22224;-63
2022/12/24 10:12:44;;;;;;;62.80;36.80;;;;;;;4.06;86.67;98901.03;106246;1309;136902;-63
2022/12/24 10:16:17;;;;;;;65.80;39.20;;;;;;;4.07;86.46;98889.20;106312;1309;22958;-63
2022/12/24 10:19:04;;;;;;;63.50;36.30;;;;;;;4.07;86.64;98896.54;104679;1323;137564;-63
2022/12/24 10:21:34;;;;;;;61.60;38.60;;;;;;;4.09;86.58;98898.63;104838;1322;22221;-63
2022/12/24 10:24:07;;;;;;;66.70;39.90;;;;;;;4.10;86.75;98900.77;104713;1318;138391;-63
2022/12/24 10:26:44;;;;;;;61.90;38.30;;;;;;;4.13;86.78;98899.65;104935;1321;22199;-63
2022/12/24 10:29:14;;;;;;;73.70;37.30;;;;;;;4.14;86.69;98898.06;104975;1320;140195;-63
2022/12/24 10:32:07;;;;;;;65.70;39.20;;;;;;;4.15;86.96;98899.45;104934;1319;22240;-63
2022/12/24 10:34:44;;;;;;;60.70;37.90;;;;;;;4.17;86.78;98903.83;105111;1320;22277;-63
2022/12/24 10:37:15;;;;;;;;;;;;;;;4.17;87.02;98912.83;105284;1320;22465;-63
2022/12/24 10:39:42;;;;;;;63.60;38.30;;;;;;;4.16;86.98;98912.64;105129;1320;22328;-63
2022/12/24 10:42:08;;;;;;;;;;;;;;;4.16;87.13;98913.55;105008;1320;137797;-63
2022/12/24 10:44:35;;;;;;;65.30;38.40;;;;;;;4.13;86.99;98904.30;105111;1304;22297;-63
2022/12/24 10:47:02;;;;;;;59.30;37.50;;;;;;;4.09;87.30;98903.33;105196;1320;137614;-63
2022/12/24 10:49:47;;;;;;;62.50;37.90;;;;;;;4.07;87.20;98906.13;104877;1320;22849;-63
2022/12/24 10:52:15;;;;;;;64.80;39.80;;;;;;;4.08;87.36;98908.30;105698;1311;22186;-63
2022/12/24 10:55:04;;;;;;;61.80;35.90;;;;;;;4.09;87.42;98904.73;106185;1308;138480;-63
2022/12/24 10:57:30;;;;;;;69.50;40.60;;;;;;;4.13;87.79;98908.49;106810;1302;22212;-63
2022/12/24 10:59:57;;;;;;;66.10;39.40;;;;;;;4.15;88.06;98911.15;106689;1302;137760;-63
2022/12/24 11:02:35;;;;;;;67.20;40.70;;;;;;;4.19;88.26;98912.86;106913;1303;22193;-63
2022/12/24 11:05:32;;;;;;;65.60;40.80;;;;;;;4.23;88.36;98911.30;106756;1300;138432;-63
2022/12/24 11:08:04;;;;;;;88.60;51.30;;;;;;;4.27;88.81;98906.27;106311;1308;23343;-62
2022/12/24 11:10:39;;;;;;;84.10;50.20;;;;;;;4.29;88.38;98907.45;106307;1308;23313;-63
2022/12/24 11:13:21;;;;;;;75.40;45.00;;;;;;;4.29;88.53;98904.58;105966;1310;137300;-64
2022/12/24 11:16:13;;;;;;;;;;;;;;;4.30;88.63;98908.55;106116;1308;22395;-63
2022/12/24 11:18:48;;;;;;;71.90;42.50;;;;;;;4.30;88.54;98908.98;106207;1308;122979;-63
2022/12/24 11:21:25;;;;;;;75.60;44.20;;;;;;;4.29;88.66;98909.23;106344;1308;23627;-64
2022/12/24 11:23:54;;;;;;;72.20;43.50;;;;;;;4.28;88.68;98911.69;106155;1308;139021;-63
2022/12/24 11:26:26;;;;;;;70.00;43.80;;;;;;;4.29;88.50;98914.79;106162;1287;22227;-63
2022/12/24 11:29:12;;;;;;;70.40;44.80;;;;;;;4.29;88.61;98913.66;106222;1308;138049;-63
2022/12/24 11:31:40;;;;;;;72.20;43.10;;;;;;;4.31;88.60;98913.10;106202;1308;22402;-63
2022/12/24 11:34:29;;;;;;;73.70;45.20;;;;;;;4.32;88.74;98914.70;106316;1308;22380;-63
2022/12/24 11:37:16;;;;;;;79.00;47.80;;;;;;;4.34;88.81;98916.06;106117;1309;139242;-63
2022/12/24 11:39:53;;;;;;;74.60;43.20;;;;;;;4.36;88.92;98914.45;106117;1308;22210;-55
2022/12/24 11:42:22;;;;;;;72.40;42.70;;;;;;;4.37;89.08;98914.02;106044;1305;139863;-55